Time;durP1;ratioP1;P1;durP2;ratioP2;P2;SDS_P1;SDS_P2;PMS_P1;PMS_P2;Temp;Humidity;BMP_temperature;BMP_pressure;BME280_temperature;BME280_humidity;BME280_pressure;Samples;Min_cycle;Max_cycle;Signal;HPM_P1;HPM_P2
2021/01/19 00:02:02;;;;;;;26.83;14.85;;;;;;;;;;5036320;28;20082;-54
2021/01/19 00:04:28;;;;;;;30.48;16.65;;;;;;;;;;5047589;28;20040;-55
2021/01/19 00:06:54;;;;;;;30.17;15.27;;;;;;;;;;5047784;28;20570;-56
2021/01/19 00:09:20;;;;;;;35.05;16.27;;;;;;;;;;5047543;28;20134;-55
2021/01/19 00:11:46;;;;;;;34.75;16.73;;;;;;;;;;5047644;28;20025;-55
2021/01/19 00:14:12;;;;;;;31.02;16.23;;;;;;;;;;5045869;28;20032;-55
2021/01/19 00:16:38;;;;;;;32.75;14.68;;;;;;;;;;5044710;28;20032;-56
2021/01/19 00:19:04;;;;;;;34.35;15.13;;;;;;;;;;5047587;28;20028;-54
2021/01/19 00:21:30;;;;;;;27.48;14.93;;;;;;;;;;5047575;28;20052;-56
2021/01/19 00:23:56;;;;;;;30.67;14.98;;;;;;;;;;5047548;28;20032;-53
2021/01/19 00:26:22;;;;;;;29.02;14.65;;;;;;;;;;5047503;28;20033;-55
2021/01/19 00:28:48;;;;;;;31.17;14.63;;;;;;;;;;5047456;28;20025;-56
2021/01/19 00:31:14;;;;;;;28.77;15.20;;;;;;;;;;5046789;28;20369;-55
2021/01/19 00:33:39;;;;;;;31.88;15.35;;;;;;;;;;5054366;28;20589;-52
2021/01/19 00:36:06;;;;;;;31.95;14.38;;;;;;;;;;5071531;28;20082;-54
2021/01/19 00:38:32;;;;;;;28.15;14.80;;;;;;;;;;5052854;28;20036;-56
2021/01/19 00:40:58;;;;;;;27.55;14.93;;;;;;;;;;5049688;28;20079;-51
2021/01/19 00:43:24;;;;;;;30.20;14.48;;;;;;;;;;5051477;28;20056;-54
2021/01/19 00:45:50;;;;;;;30.83;14.88;;;;;;;;;;5049971;28;20503;-54
2021/01/19 00:48:16;;;;;;;30.23;15.27;;;;;;;;;;5051502;28;20021;-50
2021/01/19 00:50:42;;;;;;;26.60;15.07;;;;;;;;;;5050668;28;20029;-56
2021/01/19 00:53:08;;;;;;;30.27;15.32;;;;;;;;;;5050990;28;20052;-55
2021/01/19 00:55:34;;;;;;;33.63;16.33;;;;;;;;;;5049843;28;20032;-54
2021/01/19 00:58:00;;;;;;;31.40;15.13;;;;;;;;;;5051188;28;20472;-54
2021/01/19 01:00:26;;;;;;;33.45;14.82;;;;;;;;;;5042233;28;20029;-53
2021/01/19 01:02:52;;;;;;;32.13;16.38;;;;;;;;;;5047334;28;20539;-51
2021/01/19 01:05:17;;;;;;;35.72;15.40;;;;;;;;;;5048044;28;20037;-54
2021/01/19 01:07:44;;;;;;;30.05;15.35;;;;;;;;;;5047572;28;20032;-54
2021/01/19 01:10:11;;;;;;;29.83;14.98;;;;;;;;;;5050450;28;20029;-51
2021/01/19 01:12:37;;;;;;;30.45;16.27;;;;;;;;;;5050425;28;20029;-55
2021/01/19 01:15:04;;;;;;;28.95;16.30;;;;;;;;;;5049421;28;20029;-54
2021/01/19 01:17:34;;;;;;;31.40;15.00;;;;;;;;;;5049368;28;20037;-51
2021/01/19 01:20:00;;;;;;;26.38;15.27;;;;;;;;;;5049684;28;20040;-51
2021/01/19 01:22:26;;;;;;;27.65;14.63;;;;;;;;;;5050239;28;20037;-52
2021/01/19 01:24:52;;;;;;;31.52;15.27;;;;;;;;;;5050570;28;20029;-56
2021/01/19 01:27:18;;;;;;;28.95;15.93;;;;;;;;;;5049006;28;20369;-56
2021/01/19 01:29:44;;;;;;;32.42;16.00;;;;;;;;;;5043848;28;20366;-55
2021/01/19 01:32:10;;;;;;;32.13;16.27;;;;;;;;;;5034833;28;20729;-55
2021/01/19 01:34:36;;;;;;;28.75;14.70;;;;;;;;;;5049905;28;20512;-52
2021/01/19 01:37:02;;;;;;;33.45;15.80;;;;;;;;;;5050495;28;20043;-54
2021/01/19 01:39:28;;;;;;;29.27;16.48;;;;;;;;;;5049645;28;20034;-54
2021/01/19 01:41:54;;;;;;;28.60;16.17;;;;;;;;;;5050405;28;20048;-55
2021/01/19 01:44:20;;;;;;;33.50;15.38;;;;;;;;;;5049527;28;20025;-52
2021/01/19 01:46:46;;;;;;;32.08;15.55;;;;;;;;;;5049444;28;20381;-54
2021/01/19 01:49:12;;;;;;;26.05;14.80;;;;;;;;;;5050212;28;20470;-55
2021/01/19 01:51:38;;;;;;;29.30;15.20;;;;;;;;;;5049975;28;20010;-56
2021/01/19 01:54:04;;;;;;;28.92;14.45;;;;;;;;;;5049736;28;20025;-51
2021/01/19 01:56:30;;;;;;;32.00;15.10;;;;;;;;;;5049661;28;20048;-54
2021/01/19 01:58:56;;;;;;;27.05;14.30;;;;;;;;;;5049853;28;20025;-51
2021/01/19 02:01:23;;;;;;;28.10;15.07;;;;;;;;;;5049388;28;20090;-53
2021/01/19 02:03:49;;;;;;;29.05;14.73;;;;;;;;;;5049426;28;20045;-53
2021/01/19 02:06:16;;;;;;;32.28;14.73;;;;;;;;;;5049518;28;20479;-53
2021/01/19 02:08:59;;;;;;;28.55;15.05;;;;;;;;;;5049690;28;20372;-55
2021/01/19 02:11:24;;;;;;;23.03;13.97;;;;;;;;;;5049607;28;20083;-54
2021/01/19 02:13:58;;;;;;;28.10;14.70;;;;;;;;;;5048644;28;21009;-53
2021/01/19 02:16:24;;;;;;;;;;;;;;;;;;5046235;28;20029;-55
2021/01/19 02:18:52;;;;;;;28.33;13.52;;;;;;;;;;5049546;28;19959;-52
2021/01/19 02:21:37;;;;;;;26.30;14.52;;;;;;;;;;5049783;28;20029;-53
2021/01/19 02:24:07;;;;;;;25.23;13.75;;;;;;;;;;5048936;28;20033;-52
2021/01/19 02:26:48;;;;;;;29.48;14.00;;;;;;;;;;5049429;28;20037;-54
2021/01/19 02:29:33;;;;;;;29.27;14.25;;;;;;;;;;5046924;28;20108;-51
2021/01/19 02:32:05;;;;;;;32.33;14.80;;;;;;;;;;5047276;28;20036;-56
2021/01/19 02:34:35;;;;;;;30.70;15.25;;;;;;;;;;5052749;28;20025;-54
2021/01/19 02:37:09;;;;;;;24.25;13.95;;;;;;;;;;5049457;28;20044;-52
2021/01/19 02:39:39;;;;;;;24.98;14.38;;;;;;;;;;5048131;28;20078;-50
2021/01/19 02:42:08;;;;;;;23.42;13.85;;;;;;;;;;5049109;28;20182;-51
2021/01/19 02:44:36;;;;;;;22.10;13.48;;;;;;;;;;5048742;28;20036;-53
2021/01/19 02:47:04;;;;;;;21.20;13.23;;;;;;;;;;5047442;28;20119;-54
2021/01/19 02:49:30;;;;;;;21.67;12.05;;;;;;;;;;5048576;28;20110;-54
2021/01/19 02:51:58;;;;;;;21.85;12.55;;;;;;;;;;5048660;28;20029;-54
2021/01/19 02:54:24;;;;;;;22.42;12.45;;;;;;;;;;5049190;28;20017;-51
2021/01/19 02:56:53;;;;;;;24.15;12.43;;;;;;;;;;5047755;28;20064;-53
2021/01/19 02:59:34;;;;;;;22.88;12.38;;;;;;;;;;5046051;28;20583;-54
2021/01/19 03:02:07;;;;;;;22.38;11.32;;;;;;;;;;5028543;28;20496;-55
2021/01/19 03:04:33;;;;;;;16.05;8.98;;;;;;;;;;5045935;28;20081;-52
2021/01/19 03:07:05;;;;;;;20.45;12.25;;;;;;;;;;5047888;28;20139;-53
2021/01/19 03:09:31;;;;;;;24.33;11.80;;;;;;;;;;5048561;28;20028;-54
2021/01/19 03:11:59;;;;;;;21.98;11.40;;;;;;;;;;5048895;28;20031;-56
2021/01/19 03:14:25;;;;;;;19.50;11.18;;;;;;;;;;5048601;28;20029;-54
2021/01/19 03:16:51;;;;;;;20.67;12.18;;;;;;;;;;5047978;28;20056;-50
2021/01/19 03:19:18;;;;;;;24.20;12.18;;;;;;;;;;5048271;28;20040;-55
2021/01/19 03:21:44;;;;;;;22.27;11.98;;;;;;;;;;5047992;28;20021;-53
2021/01/19 03:24:10;;;;;;;20.05;11.85;;;;;;;;;;5048279;28;20736;-52
2021/01/19 03:26:36;;;;;;;24.48;11.75;;;;;;;;;;5047969;28;20021;-54
2021/01/19 03:29:04;;;;;;;21.48;12.05;;;;;;;;;;5047634;28;20751;-53
2021/01/19 03:31:30;;;;;;;23.20;11.65;;;;;;;;;;5028094;28;20026;-54
2021/01/19 03:33:56;;;;;;;22.38;10.95;;;;;;;;;;5044797;28;20051;-54
2021/01/19 03:36:22;;;;;;;17.02;10.43;;;;;;;;;;5048309;28;20029;-55
2021/01/19 03:38:48;;;;;;;18.05;10.40;;;;;;;;;;5047726;28;20091;-56
2021/01/19 03:41:14;;;;;;;18.63;10.93;;;;;;;;;;5048104;28;20380;-50
2021/01/19 03:43:40;;;;;;;20.65;10.90;;;;;;;;;;5047625;28;20175;-55
2021/01/19 03:46:05;;;;;;;15.35;9.57;;;;;;;;;;5047746;28;20431;-53
2021/01/19 03:48:31;;;;;;;17.50;10.48;;;;;;;;;;5047727;28;20539;-53
2021/01/19 03:50:57;;;;;;;21.60;11.02;;;;;;;;;;5048256;28;20365;-55
2021/01/19 03:53:23;;;;;;;18.80;10.23;;;;;;;;;;5047343;28;20373;-55
2021/01/19 03:55:49;;;;;;;14.88;9.43;;;;;;;;;;5048123;28;20033;-57
2021/01/19 03:58:15;;;;;;;18.00;10.43;;;;;;;;;;5047551;28;20033;-57
2021/01/19 04:00:41;;;;;;;15.73;9.98;;;;;;;;;;5038604;28;20072;-51
2021/01/19 04:03:07;;;;;;;16.67;10.70;;;;;;;;;;5047923;28;20032;-52
2021/01/19 04:05:33;;;;;;;22.13;10.60;;;;;;;;;;5047946;28;20033;-52
2021/01/19 04:07:59;;;;;;;16.30;9.48;;;;;;;;;;5050628;28;20028;-53
2021/01/19 04:10:25;;;;;;;13.70;9.65;;;;;;;;;;5051883;28;20094;-55
2021/01/19 04:12:51;;;;;;;18.02;10.43;;;;;;;;;;5052039;28;20094;-49
2021/01/19 04:15:17;;;;;;;15.77;10.27;;;;;;;;;;5051367;28;20426;-55
2021/01/19 04:17:43;;;;;;;16.15;10.25;;;;;;;;;;5051868;28;20025;-54
2021/01/19 04:20:09;;;;;;;19.33;11.10;;;;;;;;;;5051464;28;20033;-54
2021/01/19 04:22:35;;;;;;;17.90;10.70;;;;;;;;;;5051691;28;20044;-54
2021/01/19 04:25:01;;;;;;;19.00;10.13;;;;;;;;;;5051827;28;20057;-54
2021/01/19 04:27:27;;;;;;;19.33;10.30;;;;;;;;;;5051740;28;20111;-56
2021/01/19 04:29:53;;;;;;;16.27;9.85;;;;;;;;;;5047894;28;20040;-55
2021/01/19 04:32:19;;;;;;;15.98;9.85;;;;;;;;;;5051409;28;20023;-55
2021/01/19 04:34:45;;;;;;;17.63;9.88;;;;;;;;;;5065756;28;20082;-50
2021/01/19 04:37:11;;;;;;;17.30;9.63;;;;;;;;;;5071690;28;20032;-54
2021/01/19 04:39:37;;;;;;;18.85;9.73;;;;;;;;;;5071466;28;20021;-54
2021/01/19 04:42:03;;;;;;;16.45;10.75;;;;;;;;;;5053061;28;20025;-52
2021/01/19 04:44:30;;;;;;;17.17;10.23;;;;;;;;;;5051153;28;20435;-52
2021/01/19 04:46:56;;;;;;;14.25;8.65;;;;;;;;;;5051014;28;20037;-53
2021/01/19 04:49:22;;;;;;;14.52;9.45;;;;;;;;;;5050964;28;20048;-52
2021/01/19 04:51:48;;;;;;;14.70;8.90;;;;;;;;;;5051197;28;20457;-54
2021/01/19 04:54:17;;;;;;;16.85;8.73;;;;;;;;;;5050980;28;20033;-55
2021/01/19 04:56:49;;;;;;;18.92;9.02;;;;;;;;;;5050546;28;20033;-56
2021/01/19 04:59:15;;;;;;;12.82;8.15;;;;;;;;;;5048903;28;20017;-51
2021/01/19 05:01:53;;;;;;;15.73;8.63;;;;;;;;;;5036883;28;20031;-55
2021/01/19 05:04:38;;;;;;;17.17;9.77;;;;;;;;;;5050920;28;20066;-51
2021/01/19 05:07:29;;;;;;;16.75;9.02;;;;;;;;;;5051232;28;20037;-55
2021/01/19 05:10:04;;;;;;;14.00;9.02;;;;;;;;;;5050727;28;20036;-52
2021/01/19 05:12:43;;;;;;;16.80;9.43;;;;;;;;;;5050621;28;20025;-55
2021/01/19 05:15:10;;;;;;;16.05;9.60;;;;;;;;;;5050865;28;20036;-50
2021/01/19 05:17:37;;;;;;;12.30;8.45;;;;;;;;;;5040501;28;20392;-52
2021/01/19 05:20:04;;;;;;;17.35;8.05;;;;;;;;;;5050020;28;20504;-55
2021/01/19 05:22:29;;;;;;;13.57;8.15;;;;;;;;;;5050526;28;20025;-55
2021/01/19 05:24:55;;;;;;;11.55;7.30;;;;;;;;;;5050729;28;20640;-55
2021/01/19 05:27:21;;;;;;;14.98;7.72;;;;;;;;;;5050434;28;20039;-55
2021/01/19 05:29:47;;;;;;;13.32;7.75;;;;;;;;;;5059704;28;20021;-51
2021/01/19 05:32:14;;;;;;;14.02;7.65;;;;;;;;;;5034560;28;20029;-52
2021/01/19 05:34:40;;;;;;;13.57;7.40;;;;;;;;;;5063532;28;20507;-52
2021/01/19 05:37:06;;;;;;;14.68;6.72;;;;;;;;;;5070467;28;20028;-54
2021/01/19 05:39:32;;;;;;;11.13;7.25;;;;;;;;;;5050220;28;20029;-49
2021/01/19 05:41:58;;;;;;;12.13;6.70;;;;;;;;;;5050331;28;20040;-52
2021/01/19 05:44:26;;;;;;;11.80;6.40;;;;;;;;;;5050140;28;20036;-52
2021/01/19 05:47:04;;;;;;;12.25;6.85;;;;;;;;;;5050148;28;20116;-49
2021/01/19 05:49:49;;;;;;;10.48;6.50;;;;;;;;;;5050345;28;20485;-51
2021/01/19 05:52:16;;;;;;;9.60;6.57;;;;;;;;;;5050032;28;20037;-55
2021/01/19 05:54:43;;;;;;;12.82;6.45;;;;;;;;;;5049884;28;20032;-53
2021/01/19 05:57:10;;;;;;;12.00;6.60;;;;;;;;;;5049571;28;20029;-54
2021/01/19 05:59:46;;;;;;;11.63;6.43;;;;;;;;;;5045083;28;20056;-54
2021/01/19 06:02:13;;;;;;;11.57;6.50;;;;;;;;;;5046105;28;20043;-54
2021/01/19 06:04:45;;;;;;;16.10;7.15;;;;;;;;;;5046587;28;20076;-50
2021/01/19 06:07:12;;;;;;;9.83;6.33;;;;;;;;;;5050560;28;20041;-54
2021/01/19 06:09:39;;;;;;;11.35;6.53;;;;;;;;;;5047069;28;20264;-54
2021/01/19 06:12:05;;;;;;;15.30;6.97;;;;;;;;;;5049836;28;20025;-54
2021/01/19 06:14:31;;;;;;;9.73;5.63;;;;;;;;;;5048120;28;20032;-56
2021/01/19 06:17:04;;;;;;;11.02;5.50;;;;;;;;;;5046546;28;20440;-53
2021/01/19 06:19:31;;;;;;;10.65;6.47;;;;;;;;;;5047305;28;20121;-53
2021/01/19 06:21:57;;;;;;;10.48;6.40;;;;;;;;;;5046445;28;20043;-47
2021/01/19 06:24:37;;;;;;;14.15;9.90;;;;;;;;;;5046963;28;20041;-49
2021/01/19 06:27:03;;;;;;;17.10;7.10;;;;;;;;;;5045830;28;20021;-49
2021/01/19 06:29:31;;;;;;;12.18;6.28;;;;;;;;;;5045101;28;20032;-50
2021/01/19 06:31:57;;;;;;;14.52;8.38;;;;;;;;;;5049088;28;20116;-54
2021/01/19 06:34:24;;;;;;;13.73;6.40;;;;;;;;;;5050411;28;20472;-51
2021/01/19 06:36:50;;;;;;;12.25;7.10;;;;;;;;;;5047415;28;20033;-51
2021/01/19 06:39:30;;;;;;;10.43;6.53;;;;;;;;;;5049659;28;20484;-54
2021/01/19 06:42:03;;;;;;;11.20;6.32;;;;;;;;;;5048783;28;20041;-52
2021/01/19 06:44:32;;;;;;;13.27;6.95;;;;;;;;;;5048476;28;20106;-55
2021/01/19 06:46:58;;;;;;;12.63;7.35;;;;;;;;;;5049208;28;20032;-52
2021/01/19 06:49:25;;;;;;;13.07;6.72;;;;;;;;;;5048463;28;21704;-51
2021/01/19 06:51:59;;;;;;;12.00;6.70;;;;;;;;;;5048138;28;20033;-56
2021/01/19 06:54:30;;;;;;;11.40;6.72;;;;;;;;;;5049054;28;20484;-54
2021/01/19 06:57:06;;;;;;;11.63;7.10;;;;;;;;;;5042030;28;20128;-55
2021/01/19 06:59:42;;;;;;;9.82;6.53;;;;;;;;;;5042059;28;20036;-50
2021/01/19 07:02:16;;;;;;;10.73;6.30;;;;;;;;;;5048441;28;20093;-54
2021/01/19 07:04:47;;;;;;;11.77;7.22;;;;;;;;;;5049605;28;20045;-54
2021/01/19 07:07:19;;;;;;;12.57;6.63;;;;;;;;;;5047275;28;20042;-56
2021/01/19 07:09:58;;;;;;;13.00;6.57;;;;;;;;;;5048154;28;20028;-49
2021/01/19 07:12:34;;;;;;;14.15;6.88;;;;;;;;;;5049024;28;20158;-52
2021/01/19 07:15:05;;;;;;;15.30;6.57;;;;;;;;;;5047860;28;20040;-53
2021/01/19 07:17:49;;;;;;;13.68;7.03;;;;;;;;;;5044887;28;20033;-56
2021/01/19 07:20:20;;;;;;;14.70;6.45;;;;;;;;;;5048919;28;20162;-54
2021/01/19 07:22:59;;;;;;;13.20;6.97;;;;;;;;;;5046817;28;20033;-53
2021/01/19 07:25:26;;;;;;;15.27;7.47;;;;;;;;;;5045407;28;20045;-54
2021/01/19 07:27:52;;;;;;;13.52;6.85;;;;;;;;;;5045995;28;20098;-54
2021/01/19 07:30:18;;;;;;;16.00;7.53;;;;;;;;;;5043933;28;20021;-56
2021/01/19 07:32:51;;;;;;;14.20;7.15;;;;;;;;;;5046915;28;20641;-54
2021/01/19 07:35:21;;;;;;;13.55;7.20;;;;;;;;;;5048881;28;20039;-56
2021/01/19 07:37:47;;;;;;;16.98;7.60;;;;;;;;;;5048410;28;20044;-53
2021/01/19 07:40:17;;;;;;;13.27;7.00;;;;;;;;;;5043731;28;21969;-55
2021/01/19 07:42:43;;;;;;;13.98;7.28;;;;;;;;;;5045646;28;20021;-52
2021/01/19 07:45:09;;;;;;;11.73;6.60;;;;;;;;;;5045495;28;20052;-50
2021/01/19 07:47:39;;;;;;;16.15;7.32;;;;;;;;;;5046268;28;20041;-52
2021/01/19 07:50:07;;;;;;;11.73;7.13;;;;;;;;;;5047745;28;20029;-50
2021/01/19 07:52:40;;;;;;;11.65;6.28;;;;;;;;;;5038576;28;20029;-49
2021/01/19 07:55:06;;;;;;;;;;;;;;;;;;5042624;28;20032;-54
2021/01/19 07:57:32;;;;;;;12.68;6.32;;;;;;;;;;5045960;28;19995;-50
2021/01/19 08:00:02;;;;;;;10.65;6.32;;;;;;;;;;5042888;28;20517;-50
2021/01/19 08:02:28;;;;;;;11.88;6.32;;;;;;;;;;5042815;28;20035;-53
2021/01/19 08:05:07;;;;;;;11.43;6.60;;;;;;;;;;5045116;28;20127;-52
2021/01/19 08:07:39;;;;;;;15.63;7.30;;;;;;;;;;5045836;28;20039;-56
2021/01/19 08:10:18;;;;;;;16.80;7.20;;;;;;;;;;5042974;28;20029;-56
2021/01/19 08:12:44;;;;;;;11.18;6.75;;;;;;;;;;5043439;28;20411;-51
2021/01/19 08:15:10;;;;;;;13.38;6.95;;;;;;;;;;5046794;28;20391;-51
2021/01/19 08:17:37;;;;;;;13.57;6.65;;;;;;;;;;5043685;28;20029;-52
2021/01/19 08:20:06;;;;;;;13.98;7.05;;;;;;;;;;5046812;28;20029;-54
2021/01/19 08:22:32;;;;;;;12.18;6.72;;;;;;;;;;5045631;28;20644;-53
2021/01/19 08:25:01;;;;;;;14.93;7.32;;;;;;;;;;5047604;28;20036;-56
2021/01/19 08:27:28;;;;;;;15.35;6.82;;;;;;;;;;5046896;28;20026;-53
2021/01/19 08:29:54;;;;;;;11.63;6.47;;;;;;;;;;5039694;28;20061;-50
2021/01/19 08:32:21;;;;;;;15.35;7.03;;;;;;;;;;5046892;28;20053;-55
2021/01/19 08:34:47;;;;;;;9.55;5.85;;;;;;;;;;5043412;28;20100;-54
2021/01/19 08:37:17;;;;;;;17.02;6.90;;;;;;;;;;5047224;28;20021;-55
2021/01/19 08:39:50;;;;;;;15.45;6.78;;;;;;;;;;5042617;28;20107;-52
2021/01/19 08:42:16;;;;;;;11.50;5.72;;;;;;;;;;5043747;28;20033;-53
2021/01/19 08:44:42;;;;;;;10.85;6.78;;;;;;;;;;5046471;28;20064;-52
2021/01/19 08:47:08;;;;;;;13.32;6.22;;;;;;;;;;5044437;28;20091;-52
2021/01/19 08:49:35;;;;;;;13.38;6.70;;;;;;;;;;5046753;28;20028;-53
2021/01/19 08:52:02;;;;;;;14.35;6.20;;;;;;;;;;5046024;28;20036;-51
2021/01/19 08:54:31;;;;;;;12.88;6.40;;;;;;;;;;5048482;28;20017;-54
2021/01/19 08:56:57;;;;;;;10.70;6.00;;;;;;;;;;5050237;28;20029;-56
2021/01/19 08:59:23;;;;;;;13.80;6.60;;;;;;;;;;5048253;28;20473;-53
2021/01/19 09:01:53;;;;;;;12.68;6.90;;;;;;;;;;5047720;28;20036;-52
2021/01/19 09:04:39;;;;;;;17.25;6.95;;;;;;;;;;5050714;28;20572;-55
2021/01/19 09:07:11;;;;;;;15.23;5.32;;;;;;;;;;5047962;28;20387;-53
2021/01/19 09:09:37;;;;;;;8.50;4.72;;;;;;;;;;5051480;28;20079;-52
2021/01/19 09:12:03;;;;;;;13.00;5.30;;;;;;;;;;5049764;28;20035;-51
2021/01/19 09:14:29;;;;;;;12.40;5.30;;;;;;;;;;5050358;28;20036;-54
2021/01/19 09:16:55;;;;;;;15.68;5.13;;;;;;;;;;5050205;28;20034;-54
2021/01/19 09:19:21;;;;;;;12.57;5.03;;;;;;;;;;5050127;28;20064;-53
2021/01/19 09:21:48;;;;;;;9.95;5.47;;;;;;;;;;5048790;28;20074;-52
2021/01/19 09:24:21;;;;;;;12.68;6.00;;;;;;;;;;5049530;28;20033;-54
2021/01/19 09:27:01;;;;;;;11.45;4.82;;;;;;;;;;5048231;28;20056;-51
2021/01/19 09:29:27;;;;;;;8.13;4.63;;;;;;;;;;5048937;28;20033;-54
2021/01/19 09:31:54;;;;;;;12.43;5.20;;;;;;;;;;5048255;28;20025;-51
2021/01/19 09:34:21;;;;;;;12.13;4.55;;;;;;;;;;5055831;28;20488;-55
2021/01/19 09:36:50;;;;;;;10.50;5.32;;;;;;;;;;5045440;28;20025;-52
2021/01/19 09:39:25;;;;;;;12.30;5.28;;;;;;;;;;5048800;28;20128;-55
2021/01/19 09:41:52;;;;;;;14.82;5.40;;;;;;;;;;5047999;28;20368;-54
2021/01/19 09:44:18;;;;;;;9.95;4.22;;;;;;;;;;5046445;28;20033;-55
2021/01/19 09:46:44;;;;;;;10.35;4.53;;;;;;;;;;5041042;28;20029;-55
2021/01/19 09:49:10;;;;;;;11.13;4.40;;;;;;;;;;5047864;28;20040;-51
2021/01/19 09:51:36;;;;;;;8.40;5.40;;;;;;;;;;5060266;28;20028;-55
2021/01/19 09:54:02;;;;;;;5.82;4.32;;;;;;;;;;5048569;28;20456;-56
2021/01/19 09:56:28;;;;;;;10.25;4.57;;;;;;;;;;5045475;28;20029;-56
2021/01/19 09:59:04;;;;;;;6.93;3.83;;;;;;;;;;5044496;28;20055;-51
2021/01/19 10:01:30;;;;;;;9.50;4.60;;;;;;;;;;5050241;28;20116;-54
2021/01/19 10:03:56;;;;;;;13.15;4.60;;;;;;;;;;5048592;28;20580;-54
2021/01/19 10:06:24;;;;;;;8.93;3.72;;;;;;;;;;5046764;28;20095;-51
2021/01/19 10:08:53;;;;;;;9.85;3.60;;;;;;;;;;5040034;28;20032;-55
2021/01/19 10:11:35;;;;;;;12.27;4.13;;;;;;;;;;5043443;28;20057;-55
2021/01/19 10:14:11;;;;;;;11.98;4.28;;;;;;;;;;5039002;28;20029;-52
2021/01/19 10:16:41;;;;;;;8.52;4.15;;;;;;;;;;5048059;28;20029;-55
2021/01/19 10:19:07;;;;;;;9.80;3.92;;;;;;;;;;5044359;28;20032;-55
2021/01/19 10:21:33;;;;;;;13.43;5.70;;;;;;;;;;5044644;28;20032;-54
2021/01/19 10:23:59;;;;;;;8.85;3.55;;;;;;;;;;5047651;28;20025;-52
2021/01/19 10:26:29;;;;;;;7.20;4.18;;;;;;;;;;5049677;28;20364;-54
2021/01/19 10:28:58;;;;;;;8.63;4.30;;;;;;;;;;5048923;28;20032;-49
2021/01/19 10:31:26;;;;;;;11.15;4.72;;;;;;;;;;5049072;28;20376;-51
2021/01/19 10:34:02;;;;;;;7.57;4.50;;;;;;;;;;5048375;28;20098;-55
2021/01/19 10:36:37;;;;;;;10.15;4.60;;;;;;;;;;5048149;28;20033;-54
2021/01/19 10:39:03;;;;;;;7.78;4.72;;;;;;;;;;5040107;28;20033;-56
2021/01/19 10:41:30;;;;;;;10.75;5.50;;;;;;;;;;5042787;28;20373;-52
2021/01/19 10:43:57;;;;;;;12.82;5.47;;;;;;;;;;5049012;28;20424;-52
2021/01/19 10:46:24;;;;;;;11.50;5.30;;;;;;;;;;5048654;28;20068;-52
2021/01/19 10:49:01;;;;;;;9.43;4.65;;;;;;;;;;5043495;28;20021;-54
2021/01/19 10:51:27;;;;;;;8.63;4.43;;;;;;;;;;5046180;28;20106;-54
2021/01/19 10:54:09;;;;;;;10.07;5.10;;;;;;;;;;5049204;28;20037;-56
2021/01/19 10:56:35;;;;;;;10.32;5.25;;;;;;;;;;5049367;28;20029;-52
2021/01/19 10:59:01;;;;;;;9.25;4.57;;;;;;;;;;5045839;28;20033;-55
2021/01/19 11:01:28;;;;;;;9.50;5.10;;;;;;;;;;5036433;28;20082;-53
2021/01/19 11:03:54;;;;;;;9.77;5.07;;;;;;;;;;5046234;28;20049;-50
2021/01/19 11:06:20;;;;;;;9.52;4.70;;;;;;;;;;5042623;28;20084;-51
2021/01/19 11:08:46;;;;;;;10.18;4.90;;;;;;;;;;5043309;28;20139;-54
2021/01/19 11:11:13;;;;;;;11.27;5.10;;;;;;;;;;5048845;28;20381;-54
2021/01/19 11:13:39;;;;;;;9.05;5.20;;;;;;;;;;5042055;28;20024;-55
2021/01/19 11:16:05;;;;;;;9.68;5.30;;;;;;;;;;5041711;28;20143;-53
2021/01/19 11:18:34;;;;;;;10.80;5.57;;;;;;;;;;5045984;28;20087;-53
2021/01/19 11:21:00;;;;;;;9.43;4.90;;;;;;;;;;5036548;28;20022;-56
2021/01/19 11:23:26;;;;;;;8.23;4.85;;;;;;;;;;5036343;28;20039;-56
2021/01/19 11:25:52;;;;;;;8.23;5.40;;;;;;;;;;5034982;28;20111;-55
2021/01/19 11:28:18;;;;;;;11.13;4.90;;;;;;;;;;5041652;28;20463;-54
2021/01/19 11:30:44;;;;;;;13.27;5.28;;;;;;;;;;5043067;28;20632;-53
2021/01/19 11:33:10;;;;;;;12.05;4.53;;;;;;;;;;5036670;28;20048;-53
2021/01/19 11:35:36;;;;;;;13.82;4.80;;;;;;;;;;5040089;28;20801;-53
2021/01/19 11:38:03;;;;;;;7.43;4.90;;;;;;;;;;5038234;28;20107;-49
2021/01/19 11:40:29;;;;;;;5.90;4.13;;;;;;;;;;5044460;28;20040;-52
2021/01/19 11:42:55;;;;;;;9.98;4.57;;;;;;;;;;5039991;28;20037;-49
2021/01/19 11:45:21;;;;;;;11.88;4.35;;;;;;;;;;5044681;28;20048;-54
2021/01/19 11:47:47;;;;;;;8.07;4.45;;;;;;;;;;5038161;28;20365;-57
2021/01/19 11:50:13;;;;;;;9.20;4.80;;;;;;;;;;5033206;28;20020;-54
2021/01/19 11:52:39;;;;;;;14.77;5.50;;;;;;;;;;5046342;28;20021;-56
2021/01/19 11:55:05;;;;;;;8.98;3.67;;;;;;;;;;5037871;28;20047;-56
2021/01/19 11:57:31;;;;;;;9.82;4.00;;;;;;;;;;5047794;28;20051;-52
2021/01/19 11:59:57;;;;;;;11.52;4.35;;;;;;;;;;5043996;28;20022;-54
2021/01/19 12:02:23;;;;;;;7.50;3.53;;;;;;;;;;5036540;28;20053;-55
2021/01/19 12:04:49;;;;;;;5.78;3.60;;;;;;;;;;5042618;28;20037;-52
2021/01/19 12:07:15;;;;;;;7.25;4.80;;;;;;;;;;5043124;28;20124;-55
2021/01/19 12:09:41;;;;;;;8.10;3.47;;;;;;;;;;5042584;28;20045;-55
2021/01/19 12:12:08;;;;;;;16.20;9.07;;;;;;;;;;5045697;28;20464;-55
2021/01/19 12:14:34;;;;;;;8.38;4.53;;;;;;;;;;5048961;28;20087;-56
2021/01/19 12:17:00;;;;;;;8.85;4.00;;;;;;;;;;5047245;28;20384;-56
2021/01/19 12:19:26;;;;;;;3.88;3.30;;;;;;;;;;5047820;28;20036;-52
2021/01/19 12:21:53;;;;;;;6.43;3.33;;;;;;;;;;5044817;28;20078;-52
2021/01/19 12:24:20;;;;;;;4.72;3.00;;;;;;;;;;5042825;28;20124;-52
2021/01/19 12:26:46;;;;;;;5.35;2.78;;;;;;;;;;5038099;28;20026;-56
2021/01/19 12:29:13;;;;;;;23.40;9.75;;;;;;;;;;5029917;28;20041;-56
2021/01/19 12:31:38;;;;;;;5.88;3.17;;;;;;;;;;5048219;28;20388;-56
2021/01/19 12:34:05;;;;;;;5.43;3.38;;;;;;;;;;5060598;28;20033;-51
2021/01/19 12:36:31;;;;;;;4.10;2.58;;;;;;;;;;5072006;28;20033;-51
2021/01/19 12:38:58;;;;;;;3.88;2.50;;;;;;;;;;5051237;28;20032;-56
2021/01/19 12:41:24;;;;;;;4.18;2.70;;;;;;;;;;5049474;28;20398;-53
2021/01/19 12:43:50;;;;;;;6.53;3.80;;;;;;;;;;5051649;28;20029;-57
2021/01/19 12:46:18;;;;;;;3.97;2.92;;;;;;;;;;5040619;28;20524;-55
2021/01/19 12:48:44;;;;;;;5.40;3.58;;;;;;;;;;5050260;28;20045;-51
2021/01/19 12:51:16;;;;;;;6.20;3.22;;;;;;;;;;5051203;28;20787;-56
2021/01/19 12:53:42;;;;;;;7.03;3.47;;;;;;;;;;5046180;28;20086;-54
2021/01/19 12:56:12;;;;;;;6.53;2.90;;;;;;;;;;5041798;28;20577;-53
2021/01/19 12:58:38;;;;;;;3.88;2.95;;;;;;;;;;5048767;28;20024;-51
2021/01/19 13:01:05;;;;;;;3.25;2.55;;;;;;;;;;5050392;28;20036;-51
2021/01/19 13:03:31;;;;;;;3.78;2.78;;;;;;;;;;5051643;28;20055;-54
2021/01/19 13:05:57;;;;;;;4.63;3.25;;;;;;;;;;5050937;28;20598;-52
2021/01/19 13:08:24;;;;;;;4.18;3.00;;;;;;;;;;5044570;28;20021;-55
2021/01/19 13:10:50;;;;;;;4.43;3.50;;;;;;;;;;5050313;28;20070;-54
2021/01/19 13:13:16;;;;;;;5.85;3.58;;;;;;;;;;5049758;28;20020;-52
2021/01/19 13:15:42;;;;;;;5.45;3.97;;;;;;;;;;5055897;28;20033;-51
2021/01/19 13:18:08;;;;;;;4.75;3.63;;;;;;;;;;5051345;28;20033;-54
2021/01/19 13:20:34;;;;;;;3.83;2.78;;;;;;;;;;5050221;28;20052;-53
2021/01/19 13:23:00;;;;;;;5.30;3.50;;;;;;;;;;5049436;28;20104;-55
2021/01/19 13:25:26;;;;;;;5.32;3.17;;;;;;;;;;5044290;28;20040;-51
2021/01/19 13:27:52;;;;;;;6.10;3.42;;;;;;;;;;5050289;28;20090;-54
2021/01/19 13:30:18;;;;;;;5.88;3.78;;;;;;;;;;5049540;28;20087;-53
2021/01/19 13:32:44;;;;;;;6.53;3.90;;;;;;;;;;5050789;28;20033;-53
2021/01/19 13:35:10;;;;;;;5.50;3.47;;;;;;;;;;5047106;28;20029;-55
2021/01/19 13:37:36;;;;;;;5.50;3.90;;;;;;;;;;5050474;28;20029;-55
2021/01/19 13:40:04;;;;;;;5.32;4.13;;;;;;;;;;5042359;28;20033;-52
2021/01/19 13:42:30;;;;;;;5.65;4.07;;;;;;;;;;5042477;28;20047;-53
2021/01/19 13:44:56;;;;;;;6.05;3.88;;;;;;;;;;5043646;28;20033;-52
2021/01/19 13:47:21;;;;;;;6.20;4.50;;;;;;;;;;5040012;28;20044;-53
2021/01/19 13:49:48;;;;;;;5.75;4.20;;;;;;;;;;5047268;28;20059;-52
2021/01/19 13:52:13;;;;;;;8.20;4.25;;;;;;;;;;5045166;28;20385;-51
2021/01/19 13:54:39;;;;;;;6.47;3.95;;;;;;;;;;5042652;28;20028;-56
2021/01/19 13:57:05;;;;;;;6.07;3.85;;;;;;;;;;5040302;28;20056;-51
2021/01/19 13:59:32;;;;;;;6.20;4.53;;;;;;;;;;5044184;28;20051;-49
2021/01/19 14:01:58;;;;;;;5.68;4.32;;;;;;;;;;5043124;28;20112;-51
2021/01/19 14:04:23;;;;;;;4.60;4.10;;;;;;;;;;5044440;28;20140;-53
2021/01/19 14:06:50;;;;;;;6.80;4.03;;;;;;;;;;5041792;28;20523;-54
2021/01/19 14:09:16;;;;;;;6.15;4.30;;;;;;;;;;5043671;28;20047;-54
2021/01/19 14:11:42;;;;;;;6.72;3.97;;;;;;;;;;5048007;28;20033;-52
2021/01/19 14:14:09;;;;;;;6.32;4.53;;;;;;;;;;5043730;28;20039;-53
2021/01/19 14:16:35;;;;;;;4.68;3.60;;;;;;;;;;5046762;28;20029;-51
2021/01/19 14:19:02;;;;;;;6.28;4.47;;;;;;;;;;5044720;28;20060;-54
2021/01/19 14:21:28;;;;;;;5.88;4.00;;;;;;;;;;5045895;28;20094;-54
2021/01/19 14:23:56;;;;;;;5.25;4.00;;;;;;;;;;5045053;28;20029;-48
2021/01/19 14:26:22;;;;;;;8.57;3.58;;;;;;;;;;5046220;28;20043;-51
2021/01/19 14:28:49;;;;;;;5.22;4.07;;;;;;;;;;5042717;28;20025;-52
2021/01/19 14:31:15;;;;;;;4.95;3.97;;;;;;;;;;5040549;28;20056;-52
2021/01/19 14:33:41;;;;;;;6.53;3.78;;;;;;;;;;5042266;28;20021;-50
2021/01/19 14:36:07;;;;;;;6.00;4.10;;;;;;;;;;5039458;28;20120;-51